createdAt,value
2018-07-08T00:02:00.092Z,7.43
2018-07-08T00:04:28.326Z,7.80
2018-07-08T00:06:59.426Z,7.20
2018-07-08T00:09:27.677Z,8.30
2018-07-08T00:11:55.954Z,7.87
2018-07-08T00:14:24.184Z,7.23
2018-07-08T00:16:52.406Z,7.50
2018-07-08T00:19:20.644Z,8.20
2018-07-08T00:21:48.892Z,8.33
2018-07-08T00:24:17.112Z,7.70
2018-07-08T00:26:45.343Z,7.97
2018-07-08T00:29:13.579Z,7.77
2018-07-08T00:31:41.819Z,7.73
2018-07-08T00:34:10.085Z,7.63
2018-07-08T00:36:38.285Z,7.57
2018-07-08T00:39:07.498Z,7.40
2018-07-08T00:41:35.790Z,7.93
2018-07-08T00:44:03.994Z,7.20
2018-07-08T00:46:32.187Z,8.50
2018-07-08T00:49:00.385Z,8.13
2018-07-08T00:51:28.589Z,8.30
2018-07-08T00:53:56.797Z,7.70
2018-07-08T00:56:24.998Z,8.83
2018-07-08T00:58:53.227Z,8.80
2018-07-08T01:01:21.436Z,6.90
2018-07-08T01:03:49.594Z,7.50
2018-07-08T01:06:18.254Z,7.70
2018-07-08T01:08:46.427Z,7.70
2018-07-08T01:11:14.572Z,8.90
2018-07-08T01:13:42.724Z,8.33
2018-07-08T01:16:10.888Z,8.20
2018-07-08T01:18:39.039Z,8.40
2018-07-08T01:21:07.198Z,9.27
2018-07-08T01:23:35.355Z,7.47
2018-07-08T01:26:10.509Z,8.10
2018-07-08T01:28:39.196Z,8.30
2018-07-08T01:31:07.738Z,6.23
2018-07-08T01:33:35.885Z,7.80
2018-07-08T01:36:04.085Z,8.20
2018-07-08T01:38:32.329Z,8.20
2018-07-08T01:41:00.470Z,7.70
2018-07-08T01:43:29.056Z,9.23
2018-07-08T01:45:57.331Z,7.90
2018-07-08T01:48:25.510Z,8.57
2018-07-08T01:50:53.670Z,7.13
2018-07-08T01:53:22.870Z,7.50
2018-07-08T01:55:51.010Z,7.00
2018-07-08T01:58:19.175Z,8.40
2018-07-08T02:00:47.361Z,7.83
2018-07-08T02:03:15.630Z,8.10
2018-07-08T02:05:43.783Z,7.40
2018-07-08T02:08:11.913Z,6.97
2018-07-08T02:10:40.070Z,8.30
2018-07-08T02:13:08.224Z,8.00
2018-07-08T02:15:36.549Z,7.67
2018-07-08T02:18:04.709Z,7.50
2018-07-08T02:20:32.854Z,7.73
2018-07-08T02:23:01.182Z,6.70
2018-07-08T02:25:29.381Z,6.90
2018-07-08T02:27:57.546Z,7.90
2018-07-08T02:30:25.873Z,7.30
2018-07-08T02:32:54.015Z,7.87
2018-07-08T02:35:22.168Z,6.83
2018-07-08T02:37:50.638Z,7.40
2018-07-08T02:40:18.877Z,6.83
2018-07-08T02:42:47.051Z,7.10
2018-07-08T02:45:15.447Z,6.63
2018-07-08T02:47:43.610Z,8.30
2018-07-08T02:50:11.757Z,7.67
2018-07-08T02:52:40.192Z,7.73
2018-07-08T02:55:08.348Z,7.93
2018-07-08T02:57:36.490Z,8.30
2018-07-08T03:00:05.054Z,7.40
2018-07-08T03:02:33.237Z,7.87
2018-07-08T03:05:01.391Z,7.77
2018-07-08T03:07:29.530Z,7.23
2018-07-08T03:09:57.674Z,8.40
2018-07-08T03:12:25.813Z,6.97
2018-07-08T03:14:53.966Z,6.83
2018-07-08T03:17:22.194Z,7.27
2018-07-08T03:19:50.387Z,6.83
2018-07-08T03:22:18.562Z,7.00
2018-07-08T03:24:46.841Z,7.30
2018-07-08T03:27:14.782Z,6.20
2018-07-08T03:29:42.929Z,7.17
2018-07-08T03:32:11.078Z,6.13
2018-07-08T03:34:39.245Z,7.40
2018-07-08T03:37:07.394Z,6.40
2018-07-08T03:39:35.546Z,7.33
2018-07-08T03:42:03.695Z,6.53
2018-07-08T03:44:31.847Z,7.40
2018-07-08T03:47:00.007Z,6.90
2018-07-08T03:49:28.166Z,6.43
2018-07-08T03:51:56.317Z,8.63
2018-07-08T03:54:26.481Z,6.60
2018-07-08T03:56:54.758Z,7.30
2018-07-08T03:59:23.021Z,7.40
2018-07-08T04:01:51.201Z,7.60
2018-07-08T04:04:19.593Z,8.17
2018-07-08T04:06:47.738Z,8.03
2018-07-08T04:09:16.445Z,8.27
2018-07-08T04:11:44.726Z,8.83
2018-07-08T04:14:12.925Z,9.10
2018-07-08T04:16:41.070Z,9.13
2018-07-08T04:19:09.205Z,9.40
2018-07-08T04:21:37.368Z,7.80
2018-07-08T04:24:05.536Z,8.77
2018-07-08T04:26:33.711Z,8.50
2018-07-08T04:29:01.628Z,8.47
2018-07-08T04:31:29.769Z,8.43
2018-07-08T04:33:57.942Z,8.00
2018-07-08T04:36:26.101Z,7.90
2018-07-08T04:38:54.281Z,9.40
2018-07-08T04:41:22.436Z,9.60
2018-07-08T04:43:50.601Z,8.70
2018-07-08T04:46:18.759Z,8.87
2018-07-08T04:48:47.027Z,9.40
2018-07-08T04:51:15.407Z,8.80
2018-07-08T04:53:43.567Z,8.60
2018-07-08T04:56:11.738Z,9.30
2018-07-08T04:58:39.888Z,9.50
2018-07-08T05:01:08.042Z,10.10
2018-07-08T05:03:36.187Z,9.30
2018-07-08T05:06:04.335Z,8.83
2018-07-08T05:08:32.502Z,10.23
2018-07-08T05:11:00.724Z,10.20
2018-07-08T05:13:28.892Z,9.13
2018-07-08T05:15:57.059Z,9.63
2018-07-08T05:18:25.200Z,9.23
2018-07-08T05:20:53.344Z,9.30
2018-07-08T05:23:21.486Z,9.60
2018-07-08T05:25:49.649Z,9.50
2018-07-08T05:28:17.796Z,8.87
2018-07-08T05:30:45.731Z,10.40
2018-07-08T05:33:13.936Z,9.43
2018-07-08T05:35:42.132Z,8.40
2018-07-08T05:38:10.251Z,8.77
2018-07-08T05:40:38.601Z,9.03
2018-07-08T05:43:06.757Z,8.77
2018-07-08T05:45:34.921Z,9.90
2018-07-08T05:48:03.085Z,8.83
2018-07-08T05:50:31.301Z,9.33
2018-07-08T05:52:59.402Z,8.37
2018-07-08T05:55:27.571Z,8.00
2018-07-08T05:57:55.725Z,8.17
2018-07-08T06:00:23.883Z,7.87
2018-07-08T06:02:52.045Z,8.70
2018-07-08T06:05:20.228Z,7.70
2018-07-08T06:07:48.376Z,8.30
2018-07-08T06:10:16.545Z,7.60
2018-07-08T06:12:44.725Z,7.80
2018-07-08T06:15:12.889Z,7.80
2018-07-08T06:17:41.062Z,8.30
2018-07-08T06:20:10.567Z,8.30
2018-07-08T06:22:39.075Z,8.00
2018-07-08T06:25:07.334Z,8.70
2018-07-08T06:27:35.658Z,9.23
2018-07-08T06:30:10.887Z,8.97
2018-07-08T06:32:38.865Z,8.40
2018-07-08T06:35:07.043Z,8.90
2018-07-08T06:37:35.216Z,9.10
2018-07-08T06:40:03.414Z,8.23
2018-07-08T06:42:31.621Z,8.80
2018-07-08T06:44:59.830Z,7.50
2018-07-08T06:47:28.061Z,8.30
2018-07-08T06:49:56.307Z,7.93
2018-07-08T06:52:24.540Z,7.87
2018-07-08T06:54:52.735Z,8.30
2018-07-08T06:57:20.948Z,7.83
2018-07-08T06:59:49.107Z,6.70
2018-07-08T07:02:17.298Z,7.50
2018-07-08T07:04:45.503Z,7.70
2018-07-08T07:07:13.702Z,7.93
2018-07-08T07:09:41.867Z,8.00
2018-07-08T07:12:10.101Z,8.07
2018-07-08T07:14:38.318Z,7.93
2018-07-08T07:17:06.547Z,7.93
2018-07-08T07:19:34.733Z,8.13
2018-07-08T07:22:02.927Z,7.40
2018-07-08T07:24:31.534Z,7.80
2018-07-08T07:26:59.745Z,7.83
2018-07-08T07:29:27.951Z,7.67
2018-07-08T07:31:55.938Z,8.10
2018-07-08T07:34:24.171Z,8.50
2018-07-08T07:36:53.149Z,7.53
2018-07-08T07:39:21.359Z,7.73
2018-07-08T07:41:49.559Z,7.80
2018-07-08T07:44:17.801Z,7.23
2018-07-08T07:46:46.028Z,8.47
2018-07-08T07:49:14.489Z,7.27
2018-07-08T07:51:42.726Z,6.97
2018-07-08T07:54:11.290Z,7.17
2018-07-08T07:56:39.520Z,7.00
2018-07-08T07:59:07.768Z,6.33
2018-07-08T08:01:35.920Z,6.77
2018-07-08T08:04:04.184Z,7.90
2018-07-08T08:06:32.390Z,7.30
2018-07-08T08:09:00.655Z,7.00
2018-07-08T08:11:28.840Z,7.83
2018-07-08T08:14:00.282Z,8.00
2018-07-08T08:16:28.500Z,7.50
2018-07-08T08:18:56.715Z,8.63
2018-07-08T08:21:25.586Z,6.83
2018-07-08T08:23:54.404Z,8.00
2018-07-08T08:26:22.632Z,8.77
2018-07-08T08:28:50.830Z,7.77
2018-07-08T08:31:19.244Z,7.97
2018-07-08T08:33:52.726Z,6.80
2018-07-08T08:36:20.947Z,6.80
2018-07-08T08:38:49.383Z,8.40
2018-07-08T08:41:17.626Z,7.57
2018-07-08T08:43:45.879Z,6.97
2018-07-08T08:46:14.032Z,7.87
2018-07-08T08:48:42.589Z,8.50
2018-07-08T08:51:10.859Z,7.60
2018-07-08T08:53:39.087Z,7.90
2018-07-08T08:56:07.694Z,7.43
2018-07-08T08:58:35.905Z,7.53
2018-07-08T09:01:03.866Z,8.07
2018-07-08T09:03:32.998Z,7.83
2018-07-08T09:06:01.260Z,7.13
2018-07-08T09:08:29.482Z,7.27
2018-07-08T09:10:57.714Z,7.40
2018-07-08T09:13:27.396Z,7.40
2018-07-08T09:15:55.575Z,8.20
2018-07-08T09:18:23.814Z,8.20
2018-07-08T09:20:51.997Z,8.57
2018-07-08T09:23:20.156Z,7.20
2018-07-08T09:25:48.307Z,7.10
2018-07-08T09:28:16.462Z,6.77
2018-07-08T09:30:44.608Z,6.80
2018-07-08T09:33:12.773Z,6.90
2018-07-08T09:35:40.963Z,6.87
2018-07-08T09:38:09.110Z,6.30
2018-07-08T09:40:37.569Z,6.33
2018-07-08T09:43:05.871Z,6.60
2018-07-08T09:45:34.090Z,6.80
2018-07-08T09:48:02.543Z,7.00
2018-07-08T09:50:31.105Z,7.77
2018-07-08T09:52:59.327Z,7.30
2018-07-08T09:55:27.585Z,6.97
2018-07-08T09:57:55.864Z,6.83
2018-07-08T10:00:25.165Z,7.30
2018-07-08T10:02:53.641Z,7.20
2018-07-08T10:05:21.934Z,6.70
2018-07-08T10:07:49.956Z,6.83
2018-07-08T10:10:18.198Z,7.30
2018-07-08T10:12:46.482Z,6.33
2018-07-08T10:15:14.799Z,6.90
2018-07-08T10:17:43.117Z,6.00
2018-07-08T10:20:11.488Z,5.80
2018-07-08T10:22:39.679Z,5.80
2018-07-08T10:25:07.958Z,6.13
2018-07-08T10:27:59.326Z,6.20
2018-07-08T10:30:27.647Z,5.90
2018-07-08T10:32:56.234Z,6.40
2018-07-08T10:35:35.787Z,5.70
2018-07-08T10:38:04.083Z,6.20
2018-07-08T10:40:33.118Z,6.67
2018-07-08T10:43:01.400Z,5.80
2018-07-08T10:45:29.710Z,5.80
2018-07-08T10:47:57.970Z,6.40
2018-07-08T10:50:26.335Z,6.70
2018-07-08T10:52:54.659Z,5.87
2018-07-08T10:55:22.957Z,5.90
2018-07-08T10:57:51.229Z,7.03
2018-07-08T11:00:19.471Z,5.93
2018-07-08T11:02:47.893Z,6.37
2018-07-08T11:05:16.140Z,6.03
2018-07-08T11:07:44.368Z,6.10
2018-07-08T11:10:12.571Z,6.30
2018-07-08T11:12:40.871Z,6.87
2018-07-08T11:15:09.118Z,6.70
2018-07-08T11:17:37.567Z,7.90
2018-07-08T11:20:06.019Z,7.13
2018-07-08T11:22:34.318Z,7.13
2018-07-08T11:25:02.560Z,7.20
2018-07-08T11:27:30.801Z,6.87
2018-07-08T11:29:59.030Z,6.70
2018-07-08T11:32:27.243Z,6.80
2018-07-08T11:34:55.830Z,7.40
2018-07-08T11:37:24.038Z,6.90
2018-07-08T11:39:52.257Z,6.87
2018-07-08T11:42:20.709Z,6.73
2018-07-08T11:44:48.939Z,6.37
2018-07-08T11:47:17.140Z,6.17
2018-07-08T11:49:45.365Z,7.27
2018-07-08T11:52:13.579Z,8.00
2018-07-08T11:54:41.830Z,6.70
2018-07-08T11:57:10.045Z,6.60
2018-07-08T11:59:38.281Z,7.67
2018-07-08T12:02:06.538Z,7.77
2018-07-08T12:04:34.818Z,6.80
2018-07-08T12:07:03.090Z,6.63
2018-07-08T12:09:31.362Z,6.80
2018-07-08T12:11:59.634Z,7.00
2018-07-08T12:14:28.212Z,7.33
2018-07-08T12:16:56.511Z,7.20
2018-07-08T12:19:24.788Z,6.10
2018-07-08T12:21:53.059Z,6.67
2018-07-08T12:24:21.314Z,6.73
2018-07-08T12:26:49.822Z,6.60
2018-07-08T12:29:18.094Z,7.10
2018-07-08T12:31:46.382Z,7.20
2018-07-08T12:34:14.669Z,6.57
2018-07-08T12:36:42.946Z,6.10
2018-07-08T12:39:12.711Z,5.90
2018-07-08T12:42:43.707Z,6.30
2018-07-08T12:45:11.948Z,5.53
2018-07-08T12:47:39.946Z,6.40
2018-07-08T12:50:08.202Z,6.63
2018-07-08T12:52:36.503Z,6.80
2018-07-08T12:55:04.769Z,6.40
2018-07-08T12:57:33.142Z,5.90
2018-07-08T13:00:01.529Z,5.20
2018-07-08T13:02:29.798Z,6.10
2018-07-08T13:04:58.012Z,6.47
2018-07-08T13:07:26.262Z,6.37
2018-07-08T13:09:54.482Z,6.40
2018-07-08T13:12:22.790Z,6.13
2018-07-08T13:14:51.030Z,6.10
2018-07-08T13:17:19.241Z,6.47
2018-07-08T13:19:47.512Z,6.20
2018-07-08T13:22:15.749Z,6.13
2018-07-08T13:24:43.960Z,5.93
2018-07-08T13:27:12.395Z,6.13
2018-07-08T13:29:47.146Z,6.17
2018-07-08T13:32:15.485Z,7.10
2018-07-08T13:34:43.695Z,5.67
2018-07-08T13:37:11.898Z,5.70
2018-07-08T13:39:40.438Z,5.63
2018-07-08T13:42:08.666Z,6.43
2018-07-08T13:44:36.913Z,5.30
2018-07-08T13:47:05.293Z,5.07
2018-07-08T13:49:33.875Z,5.80
2018-07-08T13:52:02.094Z,5.60
2018-07-08T13:54:30.307Z,4.40
2018-07-08T13:56:58.530Z,4.50
2018-07-08T13:59:26.759Z,4.50
2018-07-08T14:01:55.617Z,5.20
2018-07-08T14:04:24.493Z,5.20
2018-07-08T14:06:52.710Z,4.67
2018-07-08T14:09:21.050Z,5.60
2018-07-08T14:11:49.185Z,5.37
2018-07-08T14:14:18.952Z,5.17
2018-07-08T14:16:47.171Z,5.33
2018-07-08T14:19:15.399Z,5.10
2018-07-08T14:21:43.660Z,4.90
2018-07-08T14:24:11.870Z,5.37
2018-07-08T14:26:40.095Z,5.17
2018-07-08T14:29:08.310Z,4.60
2018-07-08T14:31:36.558Z,4.47
2018-07-08T14:34:04.831Z,4.90
2018-07-08T14:36:33.077Z,4.67
2018-07-08T14:39:05.269Z,5.67
2018-07-08T14:41:34.927Z,4.50
2018-07-08T14:44:27.070Z,4.57
2018-07-08T14:47:00.560Z,5.07
2018-07-08T14:49:50.742Z,3.90
2018-07-08T14:52:28.655Z,4.50
2018-07-08T14:55:10.448Z,4.57
2018-07-08T14:57:44.101Z,4.33
2018-07-08T15:00:13.835Z,4.40
2018-07-08T15:02:53.332Z,4.50
2018-07-08T15:05:24.354Z,4.70
2018-07-08T15:08:03.252Z,4.87
2018-07-08T15:10:33.358Z,5.07
2018-07-08T15:13:14.024Z,5.20
2018-07-08T15:15:57.418Z,4.77
2018-07-08T15:18:27.823Z,4.30
2018-07-08T15:21:14.269Z,4.67
2018-07-08T15:26:39.203Z,4.80
2018-07-08T15:29:16.057Z,4.20
2018-07-08T15:31:45.024Z,4.80
2018-07-08T15:34:14.792Z,4.20
2018-07-08T15:36:46.348Z,3.87
2018-07-08T15:39:17.410Z,4.73
2018-07-08T15:41:48.813Z,4.57
2018-07-08T15:44:20.091Z,3.90
2018-07-08T15:46:48.780Z,4.10
2018-07-08T15:49:17.353Z,3.70
2018-07-08T15:51:45.803Z,3.80
2018-07-08T15:54:14.600Z,3.23
2018-07-08T15:56:43.672Z,4.33
2018-07-08T15:59:12.237Z,3.80
2018-07-08T16:01:52.630Z,3.87
2018-07-08T16:04:21.283Z,2.77
2018-07-08T16:06:49.759Z,3.53
2018-07-08T16:09:18.435Z,2.97
2018-07-08T16:11:47.213Z,2.87
2018-07-08T16:14:15.647Z,2.87
2018-07-08T16:16:44.746Z,3.60
2018-07-08T16:19:13.027Z,3.10
2018-07-08T16:21:41.623Z,2.80
2018-07-08T16:24:10.109Z,2.93
2018-07-08T16:26:38.397Z,2.87
2018-07-08T16:29:06.870Z,3.23
2018-07-08T16:31:35.178Z,3.37
2018-07-08T16:34:03.936Z,2.90
2018-07-08T16:36:47.542Z,2.80
2018-07-08T16:39:16.508Z,2.93
2018-07-08T16:41:45.822Z,2.93
2018-07-08T16:44:14.140Z,2.53
2018-07-08T16:46:42.529Z,3.20
2018-07-08T16:49:10.841Z,2.50
2018-07-08T16:51:39.228Z,2.80
2018-07-08T16:54:08.426Z,2.83
2018-07-08T16:56:36.764Z,4.33
2018-07-08T16:59:05.101Z,3.23
2018-07-08T17:01:33.555Z,2.97
2018-07-08T17:04:02.132Z,2.93
2018-07-08T17:06:30.645Z,2.87
2018-07-08T17:08:59.081Z,3.03
2018-07-08T17:11:28.461Z,2.83
2018-07-08T17:13:57.302Z,2.97
2018-07-08T17:16:25.712Z,3.10
2018-07-08T17:18:54.137Z,2.63
2018-07-08T17:21:22.581Z,2.77
2018-07-08T17:23:53.401Z,2.73
2018-07-08T17:26:22.144Z,2.80
2018-07-08T17:28:50.535Z,3.10
2018-07-08T17:31:18.801Z,2.73
2018-07-08T17:33:47.143Z,2.63
2018-07-08T17:36:15.624Z,2.97
2018-07-08T17:38:43.981Z,2.70
2018-07-08T17:41:12.370Z,3.00
2018-07-08T17:43:41.271Z,2.23
2018-07-08T17:46:09.645Z,2.87
2018-07-08T17:48:38.099Z,2.80
2018-07-08T17:51:06.377Z,2.77
2018-07-08T17:53:34.874Z,2.63
2018-07-08T17:56:03.475Z,2.80
2018-07-08T17:58:32.006Z,2.57
2018-07-08T18:01:00.385Z,2.63
2018-07-08T18:03:28.789Z,2.60
2018-07-08T18:05:57.163Z,3.10
2018-07-08T18:08:25.604Z,2.43
2018-07-08T18:10:53.937Z,2.40
2018-07-08T18:13:22.338Z,2.63
2018-07-08T18:15:50.755Z,2.70
2018-07-08T18:18:19.215Z,2.47
2018-07-08T18:20:47.828Z,2.43
2018-07-08T18:23:16.307Z,2.97
2018-07-08T18:25:44.643Z,2.50
2018-07-08T18:28:13.049Z,2.40
2018-07-08T18:30:42.019Z,2.57
2018-07-08T18:33:13.679Z,3.10
2018-07-08T18:35:43.081Z,2.27
2018-07-08T18:38:12.190Z,2.70
2018-07-08T18:40:42.968Z,2.93
2018-07-08T18:43:16.098Z,3.57
2018-07-08T18:45:45.128Z,3.37
2018-07-08T18:48:13.643Z,3.67
2018-07-08T18:50:49.662Z,3.53
2018-07-08T18:53:18.131Z,3.20
2018-07-08T18:55:46.553Z,2.60
2018-07-08T18:58:14.926Z,2.70
2018-07-08T19:00:43.235Z,2.37
2018-07-08T19:03:11.623Z,2.67
2018-07-08T19:05:40.108Z,2.83
2018-07-08T19:08:08.721Z,2.53
2018-07-08T19:10:37.427Z,2.10
2018-07-08T19:13:06.104Z,2.70
2018-07-08T19:15:34.520Z,2.40
2018-07-08T19:18:03.792Z,2.60
2018-07-08T19:20:32.114Z,2.30
2018-07-08T19:23:00.516Z,2.10
2018-07-08T19:25:33.158Z,2.10
2018-07-08T19:28:03.319Z,2.30
2018-07-08T19:30:42.272Z,2.27
2018-07-08T19:33:11.757Z,3.03
2018-07-08T19:35:45.081Z,2.53
2018-07-08T19:38:13.491Z,2.50
2018-07-08T19:40:42.671Z,2.10
2018-07-08T19:43:11.410Z,2.10
2018-07-08T19:45:39.528Z,2.23
2018-07-08T19:48:08.097Z,2.63
2018-07-08T19:50:36.627Z,2.57
2018-07-08T19:53:05.037Z,2.40
2018-07-08T19:55:33.406Z,2.00
2018-07-08T19:58:01.898Z,2.60
2018-07-08T20:00:30.332Z,4.00
2018-07-08T20:02:58.659Z,2.73
2018-07-08T20:05:27.190Z,3.60
2018-07-08T20:07:55.430Z,3.17
2018-07-08T20:10:27.085Z,3.90
2018-07-08T20:12:55.727Z,3.27
2018-07-08T20:15:24.328Z,3.57
2018-07-08T20:17:52.765Z,3.40
2018-07-08T20:20:21.209Z,4.00
2018-07-08T20:22:49.648Z,3.20
2018-07-08T20:25:18.283Z,3.40
2018-07-08T20:27:46.745Z,3.33
2018-07-08T20:30:15.170Z,3.73
2018-07-08T20:32:43.438Z,3.33
2018-07-08T20:35:11.912Z,3.37
2018-07-08T20:37:40.359Z,3.43
2018-07-08T20:40:08.482Z,3.30
2018-07-08T20:42:36.994Z,3.40
2018-07-08T20:45:05.481Z,3.57
2018-07-08T20:47:34.099Z,3.50
2018-07-08T20:50:02.694Z,4.27
2018-07-08T20:52:31.083Z,3.50
2018-07-08T20:55:00.721Z,3.60
2018-07-08T20:57:29.336Z,3.63
2018-07-08T20:59:58.162Z,3.80
2018-07-08T21:02:27.730Z,4.30
2018-07-08T21:04:56.256Z,3.70
2018-07-08T21:07:25.509Z,3.23
2018-07-08T21:09:54.344Z,4.10
2018-07-08T21:12:22.973Z,4.63
2018-07-08T21:14:58.347Z,4.30
2018-07-08T21:17:27.041Z,4.57
2018-07-08T21:22:30.573Z,5.10
2018-07-08T21:24:58.770Z,4.60
2018-07-08T21:27:26.994Z,4.00
2018-07-08T21:29:55.213Z,4.20
2018-07-08T21:32:23.411Z,4.37
2018-07-08T21:34:51.851Z,4.27
2018-07-08T21:37:20.413Z,4.43
2018-07-08T21:39:48.771Z,4.13
2018-07-08T21:42:16.964Z,4.30
2018-07-08T21:44:45.105Z,5.27
2018-07-08T21:47:13.394Z,4.80
2018-07-08T21:49:44.492Z,4.70
2018-07-08T21:52:15.240Z,4.90
2018-07-08T21:54:52.256Z,4.63
2018-07-08T21:57:26.981Z,5.30
2018-07-08T21:59:58.355Z,5.13
2018-07-08T22:02:27.986Z,5.17
2018-07-08T22:04:56.471Z,5.07
2018-07-08T22:07:29.084Z,4.33
2018-07-08T22:09:57.540Z,5.60
2018-07-08T22:12:26.722Z,5.73
2018-07-08T22:14:55.278Z,5.00
2018-07-08T22:17:23.555Z,4.93
2018-07-08T22:19:53.183Z,5.77
2018-07-08T22:22:26.542Z,5.63
2018-07-08T22:25:00.102Z,4.80
2018-07-08T22:27:29.340Z,5.17
2018-07-08T22:29:57.702Z,5.57
2018-07-08T22:32:29.674Z,5.13
2018-07-08T22:35:01.436Z,5.73
2018-07-08T22:37:30.043Z,5.70
2018-07-08T22:39:58.579Z,5.60
2018-07-08T22:42:27.331Z,5.10
2018-07-08T22:44:55.844Z,4.93
2018-07-08T22:47:24.501Z,4.70
2018-07-08T22:49:53.053Z,5.40
2018-07-08T22:52:21.824Z,4.80
2018-07-08T22:54:50.008Z,4.50
2018-07-08T22:57:18.300Z,5.60
2018-07-08T22:59:58.091Z,5.63
2018-07-08T23:02:38.037Z,5.50
2018-07-08T23:05:08.681Z,5.13
2018-07-08T23:07:37.402Z,5.03
2018-07-08T23:10:05.999Z,5.37
2018-07-08T23:12:34.237Z,5.73
2018-07-08T23:15:03.082Z,5.90
2018-07-08T23:17:31.796Z,5.80
2018-07-08T23:20:00.463Z,6.77
2018-07-08T23:22:39.861Z,5.20
2018-07-08T23:25:09.060Z,5.60
2018-07-08T23:27:37.430Z,5.90
2018-07-08T23:30:05.923Z,4.97
2018-07-08T23:32:34.545Z,4.70
2018-07-08T23:35:02.799Z,5.83
2018-07-08T23:37:32.171Z,5.50
2018-07-08T23:40:00.486Z,5.20
2018-07-08T23:42:28.758Z,5.23
2018-07-08T23:44:56.966Z,6.07
2018-07-08T23:47:25.194Z,5.70
2018-07-08T23:49:53.436Z,4.80
2018-07-08T23:52:21.667Z,5.50
2018-07-08T23:54:49.874Z,5.73
2018-07-08T23:57:18.097Z,6.20
2018-07-08T23:59:46.301Z,5.53
